createdAt,value
2018-04-17T13:12:46.682Z,97883.52
2018-04-17T13:15:19.018Z,97884.48
2018-04-17T13:17:48.666Z,97887.05
2018-04-17T13:20:20.276Z,97868.05
2018-04-17T13:22:49.697Z,97865.33
2018-04-17T13:25:19.694Z,97852.44
2018-04-17T13:27:49.860Z,97841.90
2018-04-17T13:30:21.544Z,97841.81
2018-04-17T13:32:50.934Z,97847.20
2018-04-17T13:35:19.891Z,97864.50
2018-04-17T13:37:48.997Z,97864.00
2018-04-17T13:40:27.696Z,97859.33
2018-04-17T13:42:57.254Z,97853.94
2018-04-17T13:45:29.353Z,97859.09
2018-04-17T13:47:58.675Z,97850.43
2018-04-17T13:50:27.706Z,97862.69
2018-04-17T13:52:57.638Z,97862.14
2018-04-17T13:55:27.551Z,97848.06
2018-04-17T13:57:56.742Z,97859.00
2018-04-17T14:00:25.909Z,97854.29
2018-04-17T14:02:54.915Z,97851.19
2018-04-17T14:05:24.207Z,97849.36
2018-04-17T14:07:53.750Z,97854.59
2018-04-17T14:10:23.353Z,97853.28
2018-04-17T14:12:52.580Z,97867.49
2018-04-17T14:15:23.208Z,97864.64
2018-04-17T14:17:52.568Z,97868.08
2018-04-17T14:20:22.677Z,97885.38
2018-04-17T14:22:51.808Z,97876.54
2018-04-17T14:25:25.592Z,97878.98
2018-04-17T14:27:55.871Z,97877.20
2018-04-17T14:30:25.788Z,97877.92
2018-04-17T14:32:54.929Z,97884.24
2018-04-17T14:35:24.192Z,97875.02
2018-04-17T14:37:53.569Z,97879.34
2018-04-17T14:40:24.558Z,97888.40
2018-04-17T14:42:54.104Z,97888.00
2018-04-17T14:45:24.338Z,97883.20
2018-04-17T14:48:05.209Z,97888.00
2018-04-17T14:50:34.703Z,97894.53
2018-04-17T14:53:04.665Z,97878.68
2018-04-17T14:55:33.731Z,97890.45
2018-04-17T14:58:03.299Z,97890.30
2018-04-17T15:00:32.758Z,97881.80
2018-04-17T15:03:02.736Z,97884.39
2018-04-17T15:05:32.303Z,97882.05
2018-04-17T15:08:01.873Z,97888.23
2018-04-17T15:10:31.485Z,97890.28
2018-04-17T15:13:00.779Z,97882.20
2018-04-17T15:15:30.490Z,97891.41
2018-04-17T15:18:03.305Z,97882.53
2018-04-17T15:20:33.606Z,97876.97
2018-04-17T15:23:02.747Z,97876.54
2018-04-17T15:25:31.841Z,97878.19
2018-04-17T15:28:00.973Z,97871.82
2018-04-17T15:30:30.502Z,97880.70
2018-04-17T15:33:08.610Z,97878.77
2018-04-17T15:35:38.246Z,97876.80
2018-04-17T15:40:09.644Z,97881.69
2018-04-17T15:42:41.376Z,97880.56
2018-04-17T15:45:11.363Z,97879.17
2018-04-17T15:47:42.071Z,97884.22
2018-04-17T15:50:12.643Z,97876.14
2018-04-17T15:52:41.928Z,97877.53
2018-04-17T15:55:11.435Z,97882.58
2018-04-17T15:57:41.761Z,97884.45
2018-04-17T16:00:12.489Z,97880.69
2018-04-17T16:02:42.621Z,97883.95
2018-04-17T16:05:11.734Z,97887.23
2018-04-17T16:07:42.637Z,97884.28
2018-04-17T16:10:12.935Z,97882.08
2018-04-17T16:12:43.259Z,97887.38
2018-04-17T16:15:14.900Z,97888.70
2018-04-17T16:17:44.797Z,97888.75
2018-04-17T16:20:15.603Z,97877.63
2018-04-17T16:22:44.786Z,97881.17
2018-04-17T16:25:15.197Z,97886.23
2018-04-17T16:27:45.597Z,97888.52
2018-04-17T16:30:17.692Z,97887.31
2018-04-17T16:32:47.706Z,97891.63
2018-04-17T16:35:18.605Z,97896.52
2018-04-17T17:40:11.662Z,97970.99
2018-04-17T17:42:41.372Z,97966.59
2018-04-17T17:45:10.716Z,97966.48
2018-04-17T17:47:39.853Z,97974.23
2018-04-17T17:50:19.458Z,97978.58
2018-04-17T17:52:48.684Z,97984.94
2018-04-17T17:55:18.373Z,97987.05
2018-04-17T17:57:47.652Z,97980.92
2018-04-17T18:00:17.644Z,97987.05
2018-04-17T18:02:48.208Z,97990.81
2018-04-17T18:05:18.985Z,97995.63
2018-04-17T18:07:48.463Z,98001.84
2018-04-17T18:10:18.976Z,98007.17
2018-04-17T18:12:48.390Z,98011.73
2018-04-17T18:15:17.891Z,98014.84
2018-04-17T18:17:47.241Z,98021.78
2018-04-17T18:20:18.545Z,98025.54
2018-04-17T18:22:48.417Z,98028.45
2018-04-17T18:25:18.183Z,98031.81
2018-04-17T18:27:47.820Z,98032.55
2018-04-17T18:30:19.376Z,98028.95
2018-04-17T18:32:48.991Z,98042.44
2018-04-17T18:35:20.309Z,98048.56
2018-04-17T18:37:49.883Z,98058.43
2018-04-17T18:40:20.340Z,98060.14
2018-04-17T18:42:51.532Z,98064.16
2018-04-17T18:45:21.531Z,98067.48
2018-04-17T18:47:52.331Z,98077.70
2018-04-17T18:50:23.013Z,98076.89
2018-04-17T18:52:53.293Z,98082.03
2018-04-17T19:39:16.295Z,98144.56
2018-04-17T19:41:46.360Z,98144.88
2018-04-17T19:44:17.816Z,98144.30
2018-04-17T19:46:47.638Z,98150.34
2018-04-17T19:49:16.987Z,98149.22
2018-04-17T19:51:46.308Z,98148.72
2018-04-17T19:54:15.849Z,98162.59
2018-04-17T19:56:45.445Z,98157.86
2018-04-17T19:59:15.687Z,98163.64
2018-04-17T20:01:45.606Z,98162.69
2018-04-17T20:04:15.273Z,98167.80
2018-04-17T20:06:45.681Z,98163.73
2018-04-17T20:09:16.241Z,98172.23
2018-04-17T20:11:45.586Z,98183.47
2018-04-17T20:14:16.464Z,98188.80
2018-04-17T20:16:45.716Z,98190.50
2018-04-17T20:19:15.542Z,98199.63
2018-04-17T20:21:44.737Z,98195.20
2018-04-17T20:24:14.873Z,98191.88
2018-04-17T20:26:45.240Z,98191.48
2018-04-17T20:29:15.731Z,98194.98
2018-04-17T20:31:45.325Z,98187.45
2018-04-17T20:34:15.353Z,98198.97
2018-04-17T20:36:45.580Z,98194.57
2018-04-17T20:39:16.343Z,98194.98
2018-04-17T20:41:46.290Z,98188.53
2018-04-17T20:44:15.949Z,98194.63
2018-04-17T20:46:46.542Z,98198.15
2018-04-17T20:49:16.395Z,98200.09
2018-04-17T20:51:46.546Z,98191.21
2018-04-17T20:54:16.342Z,98193.72
2018-04-17T20:56:45.938Z,98199.27
2018-04-17T20:59:17.294Z,98194.70
2018-04-17T21:01:50.054Z,98194.44
2018-04-17T21:04:20.486Z,98198.87
2018-04-17T21:06:50.404Z,98205.14
2018-04-17T21:09:28.567Z,98198.02
2018-04-17T21:12:01.784Z,98202.85
2018-04-17T21:14:37.145Z,98199.41
2018-04-17T21:17:10.068Z,98199.98
2018-04-17T21:19:39.881Z,98208.05
2018-04-17T21:22:13.506Z,98208.22
2018-04-17T21:24:42.947Z,98209.34
2018-04-17T21:27:11.908Z,98210.33
2018-04-17T21:29:40.663Z,98217.27
2018-04-17T21:34:47.526Z,98219.05
2018-04-17T21:37:18.755Z,98217.27
2018-04-17T21:39:48.733Z,98220.44
2018-04-17T21:42:18.467Z,98225.59
2018-04-17T21:44:47.834Z,98227.95
2018-04-17T21:47:17.907Z,98221.42
2018-04-17T21:49:48.523Z,98216.28
2018-04-17T21:52:19.635Z,98215.47
2018-04-17T21:54:49.914Z,98221.59
2018-04-17T21:57:18.807Z,98229.52
2018-04-17T21:59:48.438Z,98225.36
2018-04-17T22:02:19.776Z,98229.25
2018-04-17T22:04:48.888Z,98237.58
2018-04-17T22:07:19.667Z,98241.08
2018-04-17T22:09:48.851Z,98238.06
2018-04-17T22:12:18.471Z,98239.86
2018-04-17T22:14:50.472Z,98243.03
2018-04-17T22:17:22.332Z,98233.91
2018-04-17T22:19:51.786Z,98232.41
2018-04-17T22:22:21.772Z,98232.83
